createdAt,value
2024-02-05T01:35:41.804Z,0.50
2024-02-05T01:44:52.683Z,1.30
2024-02-05T01:47:44.766Z,0.60
2024-02-05T01:50:19.856Z,0.70
2024-02-05T01:52:52.624Z,0.60
2024-02-05T01:55:25.799Z,0.80
2024-02-05T01:57:56.646Z,0.70
2024-02-05T02:00:27.043Z,0.50
2024-02-05T02:02:59.407Z,0.40
2024-02-05T02:05:27.149Z,0.50
2024-02-05T02:07:54.412Z,0.60
2024-02-05T02:10:22.070Z,0.30
2024-02-05T02:12:49.357Z,1.20
2024-02-05T02:15:16.800Z,0.50
2024-02-05T02:17:51.579Z,0.30
2024-02-05T02:20:22.133Z,0.40
2024-02-05T02:23:06.235Z,0.40
2024-02-05T02:25:33.575Z,0.40
2024-02-05T02:28:05.186Z,1.20
2024-02-05T02:30:35.038Z,0.50
2024-02-05T02:33:31.461Z,0.40
2024-02-05T02:36:19.245Z,0.40
2024-02-05T02:39:17.178Z,0.60
2024-02-05T02:41:57.633Z,0.30
2024-02-05T02:44:32.874Z,0.80
2024-02-05T02:47:06.481Z,0.30
2024-02-05T02:49:52.668Z,1.00
2024-02-05T02:52:29.595Z,0.60
2024-02-05T02:55:16.697Z,3.80
2024-02-05T02:57:55.344Z,0.40
2024-02-05T03:00:32.974Z,0.60
2024-02-05T03:03:15.253Z,0.60
2024-02-05T03:11:39.866Z,0.50
2024-02-05T03:14:20.388Z,0.50
2024-02-05T03:17:16.016Z,0.60
2024-02-05T03:20:03.642Z,0.60
2024-02-05T03:22:40.546Z,0.80
2024-02-05T03:25:22.466Z,0.50
2024-02-05T03:28:07.449Z,0.50
2024-02-05T03:33:46.593Z,0.40
2024-02-05T03:36:23.404Z,0.40
2024-02-05T03:38:59.005Z,0.50
2024-02-05T03:41:56.105Z,1.00
2024-02-05T03:44:41.724Z,0.40
2024-02-05T03:47:24.256Z,0.50
2024-02-05T03:53:27.373Z,0.70
2024-02-05T04:05:46.012Z,0.90
2024-02-05T04:15:30.998Z,0.80
2024-02-05T04:33:08.546Z,0.60
2024-02-05T05:09:41.547Z,0.50
2024-02-05T05:16:05.577Z,0.40
2024-02-05T05:19:06.746Z,0.60
2024-02-05T05:21:47.489Z,0.70
2024-02-05T05:24:56.320Z,0.30
2024-02-05T05:28:12.412Z,0.40
2024-02-05T05:31:23.089Z,0.30
2024-02-05T05:34:05.749Z,0.30
2024-02-05T05:36:44.825Z,0.30
2024-02-05T05:39:22.753Z,0.40
2024-02-05T05:41:55.936Z,0.40
2024-02-05T05:44:27.619Z,0.30
2024-02-05T05:47:11.959Z,0.30
2024-02-05T05:49:53.519Z,0.50
2024-02-05T05:52:39.485Z,0.50
2024-02-05T05:55:27.941Z,0.60
2024-02-05T05:58:12.656Z,0.80
2024-02-05T06:00:48.438Z,0.30
2024-02-05T06:03:39.676Z,0.40
2024-02-05T06:06:18.700Z,0.30
2024-02-05T06:08:53.660Z,0.30
2024-02-05T06:11:30.462Z,0.30
2024-02-05T06:14:04.356Z,2.20
2024-02-05T06:17:54.942Z,0.40
2024-02-05T06:20:32.838Z,0.40
2024-02-05T06:23:20.544Z,0.50
2024-02-05T06:26:11.369Z,0.30
2024-02-05T06:32:23.760Z,0.40
2024-02-05T06:35:09.368Z,0.60
2024-02-05T06:37:52.936Z,0.40
2024-02-05T06:43:38.668Z,0.40
2024-02-05T06:46:19.379Z,0.40
2024-02-05T06:49:08.485Z,0.30
2024-02-05T06:57:57.488Z,1.00
2024-02-05T07:00:50.233Z,0.50
2024-02-05T07:03:29.224Z,0.60
2024-02-05T07:10:24.420Z,0.80
2024-02-05T07:19:29.268Z,1.10
2024-02-05T07:22:29.111Z,0.50
2024-02-05T07:25:17.128Z,0.50
2024-02-05T07:31:30.026Z,0.40
2024-02-05T07:37:16.990Z,0.90
2024-02-05T07:46:54.747Z,0.40
2024-02-05T07:52:43.926Z,0.50
2024-02-05T07:55:51.452Z,0.30
2024-02-05T07:58:40.267Z,0.40
2024-02-05T08:01:42.804Z,0.30
2024-02-05T08:04:36.586Z,0.30
2024-02-05T08:07:17.382Z,0.50
2024-02-05T08:09:52.608Z,0.30
2024-02-05T08:12:31.829Z,0.30
2024-02-05T08:15:08.643Z,0.40
2024-02-05T08:17:36.784Z,0.40
2024-02-05T08:20:15.048Z,0.30
2024-02-05T08:22:47.412Z,1.50
2024-02-05T08:25:27.128Z,3.30
2024-02-05T08:28:00.972Z,3.70
2024-02-05T08:30:34.944Z,1.40
2024-02-05T08:33:10.264Z,2.20
2024-02-05T08:35:44.329Z,5.10
2024-02-05T08:38:13.771Z,2.70
2024-02-05T08:41:11.747Z,1.00
2024-02-05T08:43:53.969Z,0.50
2024-02-05T08:49:22.101Z,0.40
2024-02-05T08:52:11.476Z,1.50
2024-02-05T08:55:11.813Z,1.10
2024-02-05T08:58:03.465Z,0.30
2024-02-05T09:00:40.046Z,0.40
2024-02-05T09:03:13.305Z,0.50
2024-02-05T09:05:51.562Z,0.40
2024-02-05T09:08:28.833Z,0.40
2024-02-05T09:10:58.028Z,0.70
2024-02-05T09:16:36.506Z,0.40
2024-02-05T09:19:16.211Z,0.50
2024-02-05T09:22:05.234Z,0.80
2024-02-05T09:24:50.850Z,0.90
2024-02-05T09:27:20.901Z,0.70
2024-02-05T09:29:53.327Z,0.50
2024-02-05T09:32:25.064Z,0.90
2024-02-05T09:35:08.301Z,0.50
2024-02-05T09:37:44.952Z,1.50
2024-02-05T09:40:20.441Z,0.60
2024-02-05T09:46:00.581Z,1.60
2024-02-05T09:48:57.023Z,0.70
2024-02-05T09:55:01.364Z,1.30
2024-02-05T09:57:57.158Z,0.40
2024-02-05T10:00:42.602Z,0.50
2024-02-05T10:03:40.027Z,0.50
2024-02-05T10:06:20.737Z,0.80
2024-02-05T10:09:24.188Z,0.50
2024-02-05T10:15:09.223Z,0.40
2024-02-05T10:17:46.239Z,1.50
2024-02-05T10:20:39.489Z,0.70
2024-02-05T10:23:19.693Z,0.30
2024-02-05T10:25:49.974Z,0.50
2024-02-05T10:28:29.042Z,1.20
2024-02-05T10:31:17.003Z,0.50
2024-02-05T10:33:55.398Z,0.40
2024-02-05T10:36:33.047Z,0.90
2024-02-05T10:39:39.758Z,0.50
2024-02-05T10:42:17.434Z,1.90
2024-02-05T10:44:53.631Z,3.60
2024-02-05T10:47:58.740Z,0.60
2024-02-05T10:50:53.854Z,0.90
2024-02-05T10:53:39.029Z,0.40
2024-02-05T10:56:22.396Z,0.50
2024-02-05T11:03:22.824Z,0.50
2024-02-05T11:09:40.098Z,0.40
2024-02-05T11:12:47.347Z,0.70
2024-02-05T11:15:36.010Z,0.40
2024-02-05T11:21:44.300Z,0.40
2024-02-05T11:24:32.618Z,0.40
2024-02-05T11:38:23.162Z,0.80
2024-02-05T11:49:35.866Z,1.20
2024-02-05T12:49:17.975Z,1.80
2024-02-05T13:14:04.349Z,2.20
2024-02-05T13:16:32.282Z,5.40
2024-02-05T13:19:07.474Z,5.70
2024-02-05T13:24:50.416Z,2.80
2024-02-05T13:40:12.724Z,1.30
2024-02-05T13:43:30.014Z,1.20
2024-02-05T13:46:48.777Z,2.60
2024-02-05T13:53:25.469Z,0.70
2024-02-05T13:56:12.956Z,1.00
2024-02-05T13:58:44.549Z,3.20
2024-02-05T14:01:16.156Z,2.10
2024-02-05T14:03:45.195Z,3.40
2024-02-05T14:06:17.631Z,4.00
2024-02-05T14:08:47.452Z,3.40
2024-02-05T14:11:45.908Z,4.70
2024-02-05T14:14:37.730Z,2.60
2024-02-05T14:17:09.614Z,2.60
2024-02-05T14:19:42.042Z,2.20
2024-02-05T14:22:16.810Z,1.20
2024-02-05T14:24:45.449Z,3.40
2024-02-05T14:27:16.200Z,5.00
2024-02-05T14:29:53.527Z,4.90
2024-02-05T14:32:35.945Z,5.80
2024-02-05T14:35:12.550Z,4.00
2024-02-05T14:37:59.511Z,2.50
2024-02-05T14:43:57.466Z,3.30
2024-02-05T14:46:33.726Z,1.80
2024-02-05T14:49:04.859Z,1.20
2024-02-05T14:51:44.421Z,1.20
2024-02-05T14:54:28.320Z,2.60
2024-02-05T14:57:17.103Z,1.50
2024-02-05T15:07:04.691Z,2.20
2024-02-05T15:31:37.857Z,8.90
2024-02-05T16:40:48.083Z,2.60
2024-02-05T16:59:17.458Z,5.80
2024-02-05T17:01:55.376Z,2.90
2024-02-05T17:18:10.148Z,5.80
2024-02-05T17:20:54.781Z,3.40
2024-02-05T17:23:46.056Z,2.40
2024-02-05T17:31:48.224Z,5.80
2024-02-05T17:34:53.212Z,4.70
2024-02-05T17:37:40.568Z,5.80
2024-02-05T19:34:32.802Z,2.10
2024-02-05T20:46:11.731Z,4.60
2024-02-05T21:15:57.286Z,1.10
2024-02-05T22:03:38.177Z,4.10
2024-02-05T23:05:38.206Z,3.00
2024-02-05T23:12:43.219Z,2.30
2024-02-05T23:15:47.131Z,3.00
2024-02-05T23:18:58.024Z,2.40
2024-02-05T23:21:53.148Z,2.50
2024-02-05T23:24:40.885Z,2.40
2024-02-05T23:38:55.301Z,2.20
2024-02-05T23:45:40.702Z,4.60
